createdAt,value
2023-04-15T00:01:49.264Z,16.17
2023-04-15T00:04:16.520Z,16.45
2023-04-15T00:06:43.460Z,16.70
2023-04-15T00:09:10.331Z,15.70
2023-04-15T00:11:37.218Z,14.85
2023-04-15T00:14:04.611Z,16.35
2023-04-15T00:16:31.596Z,14.43
2023-04-15T00:18:59.324Z,15.48
2023-04-15T00:21:27.668Z,15.68
2023-04-15T00:23:54.892Z,15.48
2023-04-15T00:26:22.322Z,16.58
2023-04-15T00:28:49.324Z,15.38
2023-04-15T00:31:16.509Z,15.27
2023-04-15T00:33:43.850Z,14.02
2023-04-15T00:36:11.313Z,16.38
2023-04-15T00:38:38.683Z,15.75
2023-04-15T00:41:05.868Z,16.40
2023-04-15T00:43:32.778Z,17.13
2023-04-15T00:46:01.105Z,16.30
2023-04-15T00:48:28.862Z,15.55
2023-04-15T00:50:55.842Z,16.08
2023-04-15T00:53:22.748Z,17.40
2023-04-15T00:55:50.169Z,16.80
2023-04-15T00:58:18.296Z,15.98
2023-04-15T01:00:46.126Z,17.35
2023-04-15T01:03:13.179Z,16.02
2023-04-15T01:05:40.293Z,16.15
2023-04-15T01:08:07.403Z,16.83
2023-04-15T01:10:34.336Z,17.00
2023-04-15T01:13:01.237Z,17.63
2023-04-15T01:15:28.156Z,17.52
2023-04-15T01:17:55.336Z,17.17
2023-04-15T01:20:22.376Z,17.33
2023-04-15T01:22:50.156Z,17.40
2023-04-15T01:25:27.259Z,17.63
2023-04-15T01:27:54.282Z,16.25
2023-04-15T01:30:22.030Z,16.77
2023-04-15T01:32:48.992Z,17.30
2023-04-15T01:35:15.987Z,17.13
2023-04-15T01:37:43.096Z,15.10
2023-04-15T01:40:10.248Z,15.80
2023-04-15T01:42:37.654Z,14.73
2023-04-15T01:45:05.407Z,17.00
2023-04-15T01:47:32.340Z,15.55
2023-04-15T01:49:59.263Z,15.88
2023-04-15T01:52:26.348Z,15.98
2023-04-15T01:54:53.223Z,15.60
2023-04-15T01:57:20.077Z,14.95
2023-04-15T01:59:47.217Z,16.40
2023-04-15T02:02:14.133Z,14.93
2023-04-15T02:04:41.048Z,14.32
2023-04-15T02:07:08.648Z,15.48
2023-04-15T02:09:35.569Z,15.38
2023-04-15T02:12:02.490Z,15.13
2023-04-15T02:14:29.393Z,14.57
2023-04-15T02:16:56.588Z,15.50
2023-04-15T02:19:23.728Z,16.70
2023-04-15T02:21:50.619Z,14.70
2023-04-15T02:24:17.471Z,14.18
2023-04-15T02:26:44.513Z,15.80
2023-04-15T02:29:11.520Z,15.23
2023-04-15T02:31:40.668Z,15.40
2023-04-15T02:34:08.304Z,14.38
2023-04-15T02:36:35.390Z,13.68
2023-04-15T02:39:03.141Z,13.55
2023-04-15T02:41:30.559Z,13.75
2023-04-15T02:43:57.496Z,13.75
2023-04-15T02:46:24.614Z,13.27
2023-04-15T02:48:51.571Z,14.27
2023-04-15T02:51:20.427Z,13.35
2023-04-15T02:53:50.723Z,14.35
2023-04-15T02:56:19.480Z,13.50
2023-04-15T02:58:46.518Z,13.60
2023-04-15T03:02:09.785Z,14.02
2023-04-15T03:04:36.760Z,14.00
2023-04-15T03:07:03.691Z,13.45
2023-04-15T03:09:30.691Z,14.80
2023-04-15T03:11:57.636Z,13.55
2023-04-15T03:14:24.701Z,14.63
2023-04-15T03:16:52.145Z,14.18
2023-04-15T03:19:19.139Z,14.65
2023-04-15T03:21:46.127Z,14.02
2023-04-15T03:24:13.055Z,13.35
2023-04-15T03:26:40.189Z,12.85
2023-04-15T03:29:07.134Z,13.88
2023-04-15T03:31:34.163Z,13.85
2023-04-15T03:34:01.238Z,13.80
2023-04-15T03:36:31.443Z,13.98
2023-04-15T03:38:58.831Z,14.25
2023-04-15T03:41:26.584Z,14.52
2023-04-15T03:43:53.503Z,14.20
2023-04-15T03:46:20.617Z,14.25
2023-04-15T03:48:48.271Z,14.60
2023-04-15T03:51:15.206Z,14.13
2023-04-15T03:53:42.123Z,14.27
2023-04-15T03:56:09.003Z,13.55
2023-04-15T03:58:36.022Z,16.33
2023-04-15T04:01:03.043Z,16.52
2023-04-15T04:03:30.319Z,16.40
2023-04-15T04:05:57.468Z,14.73
2023-04-15T04:08:24.360Z,16.00
2023-04-15T04:10:51.541Z,14.07
2023-04-15T04:13:18.447Z,15.10
2023-04-15T04:15:45.378Z,15.10
2023-04-15T04:18:12.583Z,16.10
2023-04-15T04:20:39.526Z,14.75
2023-04-15T04:23:06.758Z,15.43
2023-04-15T04:25:33.655Z,15.52
2023-04-15T04:28:00.783Z,15.88
2023-04-15T04:30:27.702Z,16.27
2023-04-15T04:32:54.722Z,16.02
2023-04-15T04:35:22.073Z,15.93
2023-04-15T04:37:48.969Z,15.93
2023-04-15T04:40:16.311Z,15.20
2023-04-15T04:42:43.212Z,14.63
2023-04-15T04:45:10.331Z,15.65
2023-04-15T04:47:37.273Z,15.30
2023-04-15T04:50:04.487Z,15.18
2023-04-15T04:52:31.902Z,15.27
2023-04-15T04:54:58.814Z,14.95
2023-04-15T04:57:25.690Z,17.10
2023-04-15T04:59:52.665Z,17.02
2023-04-15T05:02:19.705Z,18.70
2023-04-15T05:04:46.764Z,17.67
2023-04-15T05:07:13.827Z,15.48
2023-04-15T05:09:41.019Z,23.73
2023-04-15T05:12:09.308Z,18.23
2023-04-15T05:14:36.386Z,23.73
2023-04-15T05:17:03.536Z,25.70
2023-04-15T05:19:30.556Z,15.18
2023-04-15T05:21:57.495Z,15.95
2023-04-15T05:24:24.524Z,15.43
2023-04-15T05:26:51.565Z,15.13
2023-04-15T05:29:18.559Z,15.85
2023-04-15T05:31:45.734Z,15.20
2023-04-15T05:34:12.799Z,15.55
2023-04-15T05:36:39.986Z,15.50
2023-04-15T05:39:07.300Z,14.65
2023-04-15T05:41:34.715Z,14.68
2023-04-15T05:44:02.162Z,15.55
2023-04-15T05:46:29.120Z,15.35
2023-04-15T05:48:56.718Z,14.63
2023-04-15T05:51:23.815Z,14.52
2023-04-15T05:53:50.809Z,15.23
2023-04-15T05:56:17.738Z,15.10
2023-04-15T05:58:44.750Z,14.77
2023-04-15T06:01:11.833Z,15.05
2023-04-15T06:03:39.852Z,15.05
2023-04-15T06:06:07.837Z,14.57
2023-04-15T06:08:34.790Z,15.52
2023-04-15T06:11:01.741Z,15.68
2023-04-15T06:13:29.229Z,13.85
2023-04-15T06:15:56.216Z,14.85
2023-04-15T06:18:23.134Z,13.82
2023-04-15T06:20:50.108Z,14.45
2023-04-15T06:23:17.186Z,13.98
2023-04-15T06:25:44.198Z,13.10
2023-04-15T06:28:11.274Z,13.95
2023-04-15T06:30:39.245Z,13.35
2023-04-15T06:33:06.426Z,14.23
2023-04-15T06:35:33.362Z,13.80
2023-04-15T06:38:00.365Z,12.10
2023-04-15T06:40:27.948Z,13.07
2023-04-15T06:42:55.723Z,13.25
2023-04-15T06:45:22.862Z,12.65
2023-04-15T06:47:49.878Z,12.98
2023-04-15T06:50:16.831Z,12.50
2023-04-15T06:52:43.833Z,12.02
2023-04-15T06:55:11.001Z,13.50
2023-04-15T07:01:26.744Z,11.85
2023-04-15T07:03:53.733Z,12.43
2023-04-15T07:06:22.028Z,11.85
2023-04-15T07:08:48.930Z,12.68
2023-04-15T07:11:16.062Z,11.60
2023-04-15T07:17:31.077Z,12.25
2023-04-15T07:19:58.301Z,10.73
2023-04-15T07:22:26.317Z,12.48
2023-04-15T07:24:53.252Z,10.85
2023-04-15T07:27:20.333Z,11.40
2023-04-15T07:29:47.557Z,11.32
2023-04-15T07:32:14.467Z,11.40
2023-04-15T07:34:42.337Z,11.68
2023-04-15T07:37:09.887Z,12.98
2023-04-15T07:39:37.299Z,11.15
2023-04-15T07:42:04.773Z,11.82
2023-04-15T07:44:31.863Z,12.20
2023-04-15T07:46:59.042Z,11.55
2023-04-15T07:49:26.228Z,11.00
2023-04-15T07:51:53.813Z,10.43
2023-04-15T07:54:21.002Z,10.93
2023-04-15T07:56:47.897Z,10.43
2023-04-15T07:59:17.868Z,11.38
2023-04-15T08:01:45.179Z,10.35
2023-04-15T08:04:12.228Z,11.38
2023-04-15T08:06:40.206Z,10.90
2023-04-15T08:09:08.272Z,10.55
2023-04-15T08:11:35.282Z,11.00
2023-04-15T08:14:02.290Z,11.27
2023-04-15T08:16:29.750Z,11.70
2023-04-15T08:18:57.985Z,10.27
2023-04-15T08:21:25.407Z,11.18
2023-04-15T08:23:53.806Z,11.00
2023-04-15T08:26:21.817Z,9.73
2023-04-15T08:28:49.112Z,9.93
2023-04-15T08:31:17.656Z,10.18
2023-04-15T08:33:45.008Z,9.85
2023-04-15T08:36:12.250Z,10.38
2023-04-15T08:38:39.275Z,9.57
2023-04-15T08:41:27.305Z,12.35
2023-04-15T08:43:58.211Z,10.10
2023-04-15T08:46:25.660Z,9.95
2023-04-15T08:48:54.080Z,10.27
2023-04-15T08:51:21.809Z,9.23
2023-04-15T08:53:50.990Z,9.80
2023-04-15T08:56:22.890Z,10.43
2023-04-15T08:58:50.707Z,9.23
2023-04-15T09:01:17.817Z,10.88
2023-04-15T09:03:45.282Z,10.85
2023-04-15T09:06:12.349Z,9.82
2023-04-15T09:08:39.302Z,10.70
2023-04-15T09:14:48.240Z,9.75
2023-04-15T09:17:19.904Z,10.13
2023-04-15T09:19:46.866Z,10.40
2023-04-15T09:22:14.492Z,9.82
2023-04-15T09:24:43.454Z,10.70
2023-04-15T09:27:11.266Z,11.20
2023-04-15T09:29:38.598Z,9.93
2023-04-15T09:36:04.886Z,10.85
2023-04-15T09:38:32.653Z,10.52
2023-04-15T09:40:59.802Z,11.73
2023-04-15T09:43:40.505Z,10.65
2023-04-15T09:46:07.731Z,9.95
2023-04-15T09:48:34.686Z,10.45
2023-04-15T09:51:02.410Z,10.55
2023-04-15T09:53:31.711Z,10.32
2023-04-15T09:56:03.547Z,10.15
2023-04-15T09:58:33.515Z,9.45
2023-04-15T10:01:02.007Z,10.13
2023-04-15T10:03:30.122Z,10.15
2023-04-15T10:05:59.607Z,10.73
2023-04-15T10:08:29.576Z,10.55
2023-04-15T10:10:57.897Z,10.67
2023-04-15T10:13:28.761Z,10.60
2023-04-15T10:16:04.463Z,9.77
2023-04-15T10:18:35.078Z,9.23
2023-04-15T10:21:02.452Z,9.73
2023-04-15T10:23:31.226Z,9.73
2023-04-15T10:25:59.014Z,10.10
2023-04-15T10:28:26.833Z,9.82
2023-04-15T10:30:54.411Z,11.10
2023-04-15T10:33:23.865Z,9.85
2023-04-15T10:35:52.822Z,10.82
2023-04-15T10:38:35.836Z,9.65
2023-04-15T10:41:17.786Z,10.52
2023-04-15T10:44:02.993Z,9.85
2023-04-15T10:46:46.010Z,10.83
2023-04-15T10:49:14.812Z,9.70
2023-04-15T10:51:51.188Z,9.43
2023-04-15T10:54:32.582Z,10.02
2023-04-15T10:57:06.054Z,9.50
2023-04-15T10:59:37.136Z,9.60
2023-04-15T11:02:08.363Z,8.95
2023-04-15T11:04:58.322Z,8.63
2023-04-15T11:07:40.643Z,9.63
2023-04-15T11:10:25.851Z,8.77
2023-04-15T11:13:01.304Z,9.02
2023-04-15T11:15:38.994Z,9.23
2023-04-15T11:18:17.179Z,9.40
2023-04-15T11:20:47.373Z,8.73
2023-04-15T11:23:28.894Z,8.40
2023-04-15T11:25:57.882Z,9.95
2023-04-15T11:28:29.399Z,10.15
2023-04-15T11:30:57.256Z,8.43
2023-04-15T11:33:25.123Z,8.38
2023-04-15T11:35:57.811Z,8.88
2023-04-15T11:38:24.921Z,8.35
2023-04-15T11:40:54.632Z,8.23
2023-04-15T11:43:23.602Z,8.73
2023-04-15T11:46:00.436Z,8.55
2023-04-15T11:48:29.867Z,9.23
2023-04-15T11:51:04.752Z,7.78
2023-04-15T11:53:44.620Z,7.93
2023-04-15T11:56:17.583Z,8.20
2023-04-15T11:58:46.462Z,8.32
2023-04-15T12:01:13.871Z,9.00
2023-04-15T12:03:44.098Z,7.95
2023-04-15T12:06:19.122Z,9.57
2023-04-15T12:08:50.014Z,8.77
2023-04-15T12:11:21.672Z,8.00
2023-04-15T12:13:50.444Z,8.35
2023-04-15T12:16:19.011Z,8.48
2023-04-15T12:18:47.342Z,8.07
2023-04-15T12:21:14.633Z,7.40
2023-04-15T12:23:52.187Z,9.10
2023-04-15T12:26:26.026Z,8.93
2023-04-15T12:29:12.862Z,7.55
2023-04-15T12:31:57.395Z,7.72
2023-04-15T12:34:28.596Z,7.47
2023-04-15T12:36:55.936Z,8.13
2023-04-15T12:39:30.463Z,7.55
2023-04-15T12:41:58.895Z,9.25
2023-04-15T12:44:26.234Z,8.45
2023-04-15T12:46:53.618Z,8.50
2023-04-15T12:49:24.461Z,8.07
2023-04-15T12:51:54.312Z,7.40
2023-04-15T12:54:22.160Z,8.32
2023-04-15T12:56:50.764Z,8.43
2023-04-15T12:59:18.813Z,8.32
2023-04-15T13:01:47.571Z,9.23
2023-04-15T13:04:15.607Z,9.05
2023-04-15T13:06:42.948Z,7.35
2023-04-15T13:09:09.952Z,9.80
2023-04-15T13:11:36.986Z,8.18
2023-04-15T13:14:09.029Z,8.30
2023-04-15T13:16:36.312Z,8.10
2023-04-15T13:19:04.208Z,9.07
2023-04-15T13:21:35.572Z,8.30
2023-04-15T13:24:04.277Z,8.65
2023-04-15T13:26:31.905Z,7.88
2023-04-15T13:28:59.210Z,8.30
2023-04-15T13:31:26.411Z,8.07
2023-04-15T13:33:53.482Z,8.43
2023-04-15T13:36:20.707Z,9.38
2023-04-15T13:38:49.806Z,8.20
2023-04-15T13:41:18.328Z,8.07
2023-04-15T13:43:45.216Z,8.15
2023-04-15T13:46:12.279Z,8.63
2023-04-15T13:48:39.256Z,8.60
2023-04-15T13:51:06.469Z,8.68
2023-04-15T13:53:39.093Z,8.65
2023-04-15T13:56:10.146Z,8.75
2023-04-15T13:58:37.871Z,8.52
2023-04-15T14:01:06.963Z,9.23
2023-04-15T14:03:36.915Z,9.05
2023-04-15T14:06:05.187Z,8.32
2023-04-15T14:08:32.149Z,9.20
2023-04-15T14:10:59.122Z,8.63
2023-04-15T14:13:26.041Z,8.90
2023-04-15T14:15:53.165Z,9.65
2023-04-15T14:18:20.350Z,10.25
2023-04-15T14:20:47.286Z,8.88
2023-04-15T14:23:14.242Z,9.25
2023-04-15T14:25:41.161Z,9.52
2023-04-15T14:28:08.112Z,10.27
2023-04-15T14:30:35.325Z,9.68
2023-04-15T14:33:02.632Z,9.70
2023-04-15T14:35:29.781Z,9.80
2023-04-15T14:37:56.915Z,8.60
2023-04-15T14:40:23.985Z,8.82
2023-04-15T14:42:50.971Z,8.07
2023-04-15T14:45:17.998Z,8.65
2023-04-15T14:47:45.501Z,9.35
2023-04-15T14:50:12.811Z,8.13
2023-04-15T14:52:39.796Z,8.88
2023-04-15T14:55:08.390Z,8.07
2023-04-15T14:57:36.112Z,9.13
2023-04-15T15:00:04.601Z,8.98
2023-04-15T15:02:39.161Z,9.43
2023-04-15T15:05:08.313Z,8.00
2023-04-15T15:07:37.412Z,7.85
2023-04-15T15:10:05.171Z,8.32
2023-04-15T15:12:33.219Z,8.35
2023-04-15T15:15:01.608Z,9.02
2023-04-15T15:17:30.238Z,8.73
2023-04-15T15:19:57.471Z,9.18
2023-04-15T15:22:25.947Z,8.98
2023-04-15T15:24:53.656Z,8.60
2023-04-15T15:27:20.832Z,9.43
2023-04-15T15:29:47.845Z,7.90
2023-04-15T15:32:14.879Z,9.13
2023-04-15T15:34:41.773Z,8.90
2023-04-15T15:37:08.757Z,9.02
2023-04-15T15:39:36.142Z,8.20
2023-04-15T15:42:03.570Z,8.55
2023-04-15T15:44:31.212Z,9.07
2023-04-15T15:46:58.996Z,7.72
2023-04-15T15:49:28.296Z,8.38
2023-04-15T15:51:56.359Z,8.18
2023-04-15T15:54:23.299Z,8.20
2023-04-15T15:56:50.325Z,9.55
2023-04-15T15:59:17.354Z,8.85
2023-04-15T16:01:44.518Z,10.45
2023-04-15T16:04:11.569Z,9.18
2023-04-15T16:06:38.720Z,10.15
2023-04-15T16:09:05.863Z,8.85
2023-04-15T16:11:33.009Z,9.57
2023-04-15T16:14:00.048Z,10.23
2023-04-15T16:16:27.004Z,9.50
2023-04-15T16:18:53.999Z,9.38
2023-04-15T16:21:21.000Z,9.57
2023-04-15T16:23:48.099Z,9.88
2023-04-15T16:26:15.049Z,11.95
2023-04-15T16:28:42.050Z,9.23
2023-04-15T16:31:10.691Z,8.50
2023-04-15T16:33:38.982Z,8.95
2023-04-15T16:36:06.123Z,8.02
2023-04-15T16:38:33.125Z,8.02
2023-04-15T16:41:01.588Z,7.63
2023-04-15T16:43:29.406Z,7.55
2023-04-15T16:45:56.713Z,7.68
2023-04-15T16:48:24.001Z,8.70
2023-04-15T16:50:50.956Z,7.93
2023-04-15T16:53:18.066Z,7.93
2023-04-15T16:55:45.011Z,8.20
2023-04-15T16:58:12.002Z,7.53
2023-04-15T17:00:38.947Z,8.13
2023-04-15T17:03:06.532Z,7.47
2023-04-15T17:05:33.894Z,7.45
2023-04-15T17:08:01.161Z,6.78
2023-04-15T17:10:28.460Z,7.65
2023-04-15T17:12:59.195Z,7.35
2023-04-15T17:15:26.509Z,7.28
2023-04-15T17:17:53.684Z,7.30
2023-04-15T17:20:20.836Z,7.00
2023-04-15T17:22:48.749Z,7.85
2023-04-15T17:25:15.762Z,8.32
2023-04-15T17:27:42.683Z,8.63
2023-04-15T17:30:10.057Z,7.38
2023-04-15T17:32:37.311Z,8.73
2023-04-15T17:35:06.643Z,7.80
2023-04-15T17:37:34.556Z,6.90
2023-04-15T17:40:02.060Z,6.78
2023-04-15T17:42:29.052Z,7.22
2023-04-15T17:44:56.004Z,7.25
2023-04-15T17:47:23.044Z,7.22
2023-04-15T17:49:50.202Z,6.82
2023-04-15T17:52:17.113Z,6.25
2023-04-15T17:54:44.007Z,6.18
2023-04-15T17:57:11.088Z,4.80
2023-04-15T17:59:38.048Z,5.13
2023-04-15T18:02:05.175Z,4.90
2023-04-15T18:04:32.770Z,4.60
2023-04-15T18:06:59.777Z,4.45
2023-04-15T18:09:27.839Z,4.70
2023-04-15T18:11:54.750Z,4.22
2023-04-15T18:14:33.571Z,4.18
2023-04-15T18:17:03.204Z,4.30
2023-04-15T18:19:31.033Z,3.97
2023-04-15T18:22:00.254Z,4.47
2023-04-15T18:24:27.941Z,5.20
2023-04-15T18:26:54.953Z,4.78
2023-04-15T18:29:22.099Z,4.75
2023-04-15T18:31:49.309Z,4.65
2023-04-15T18:34:16.297Z,5.20
2023-04-15T18:36:43.371Z,5.13
2023-04-15T18:39:10.713Z,5.53
2023-04-15T18:41:37.611Z,5.63
2023-04-15T18:44:05.049Z,5.65
2023-04-15T18:46:32.080Z,4.95
2023-04-15T18:48:59.052Z,4.55
2023-04-15T18:51:26.052Z,4.35
2023-04-15T18:53:53.026Z,4.78
2023-04-15T18:56:19.966Z,4.20
2023-04-15T18:59:19.416Z,4.30
2023-04-15T19:01:34.539Z,4.75
2023-04-15T19:04:02.501Z,4.72
2023-04-15T19:06:29.513Z,4.57
2023-04-15T19:08:58.728Z,4.38
2023-04-15T19:11:26.395Z,4.57
2023-04-15T19:13:53.483Z,4.55
2023-04-15T19:16:20.737Z,5.00
2023-04-15T19:18:47.694Z,4.88
2023-04-15T19:21:16.319Z,4.80
2023-04-15T19:23:43.622Z,4.70
2023-04-15T19:26:11.761Z,4.75
2023-04-15T19:28:39.004Z,5.10
2023-04-15T19:31:06.822Z,5.05
2023-04-15T19:33:34.218Z,5.45
2023-04-15T19:36:02.589Z,6.10
2023-04-15T19:38:30.651Z,6.20
2023-04-15T19:40:58.541Z,6.22
2023-04-15T19:43:25.480Z,7.15
2023-04-15T19:45:54.685Z,7.18
2023-04-15T19:48:22.574Z,7.45
2023-04-15T19:50:49.608Z,7.53
2023-04-15T19:53:16.529Z,7.75
2023-04-15T19:55:43.544Z,8.02
2023-04-15T19:58:10.527Z,9.10
2023-04-15T20:00:37.908Z,8.57
2023-04-15T20:03:05.802Z,8.88
2023-04-15T20:05:32.906Z,8.95
2023-04-15T20:08:01.477Z,9.15
2023-04-15T20:10:28.622Z,9.07
2023-04-15T20:12:55.598Z,10.35
2023-04-15T20:15:24.013Z,9.07
2023-04-15T20:17:51.619Z,10.07
2023-04-15T20:20:19.081Z,9.18
2023-04-15T20:22:46.175Z,9.98
2023-04-15T20:25:13.707Z,9.88
2023-04-15T20:27:42.245Z,9.77
2023-04-15T20:30:09.736Z,11.45
2023-04-15T20:32:36.810Z,9.95
2023-04-15T20:35:07.721Z,9.95
2023-04-15T20:37:34.824Z,10.90
2023-04-15T20:40:02.255Z,10.88
2023-04-15T20:42:34.522Z,9.65
2023-04-15T20:45:02.124Z,9.85
2023-04-15T20:47:29.562Z,10.65
2023-04-15T20:49:56.787Z,10.23
2023-04-15T20:52:23.820Z,10.88
2023-04-15T20:54:51.354Z,10.75
2023-04-15T20:57:18.564Z,10.77
2023-04-15T20:59:45.493Z,11.10
2023-04-15T21:02:12.602Z,10.63
2023-04-15T21:04:39.678Z,11.18
2023-04-15T21:07:06.695Z,10.85
2023-04-15T21:09:33.676Z,10.32
2023-04-15T21:12:02.322Z,11.57
2023-04-15T21:14:29.951Z,9.55
2023-04-15T21:17:00.011Z,10.25
2023-04-15T21:19:27.062Z,10.25
2023-04-15T21:21:53.957Z,10.13
2023-04-15T21:24:20.909Z,9.98
2023-04-15T21:26:47.827Z,9.68
2023-04-15T21:29:14.907Z,9.85
2023-04-15T21:31:42.274Z,8.45
2023-04-15T21:34:09.614Z,9.10
2023-04-15T21:36:37.628Z,9.98
2023-04-15T21:39:05.049Z,9.70
2023-04-15T21:41:32.876Z,9.57
2023-04-15T21:43:59.867Z,10.73
2023-04-15T21:46:32.689Z,12.27
2023-04-15T21:49:00.441Z,13.37
2023-04-15T21:51:27.829Z,14.15
2023-04-15T21:53:54.858Z,15.45
2023-04-15T21:56:24.399Z,14.07
2023-04-15T21:58:54.659Z,12.40
2023-04-15T22:01:21.589Z,12.65
2023-04-15T22:03:48.899Z,13.23
2023-04-15T22:06:16.466Z,12.48
2023-04-15T22:08:54.814Z,11.43
2023-04-15T22:11:27.209Z,12.07
2023-04-15T22:13:54.917Z,12.23
2023-04-15T22:16:22.085Z,12.20
2023-04-15T22:18:49.191Z,11.02
2023-04-15T22:21:16.453Z,9.55
2023-04-15T22:23:47.450Z,8.63
2023-04-15T22:26:14.756Z,8.10
2023-04-15T22:28:41.984Z,7.78
2023-04-15T22:31:09.067Z,7.85
2023-04-15T22:33:36.132Z,7.88
2023-04-15T22:36:03.200Z,8.40
2023-04-15T22:38:30.515Z,8.45
2023-04-15T22:40:57.506Z,10.75
2023-04-15T22:43:24.423Z,10.55
2023-04-15T22:45:51.538Z,9.88
2023-04-15T22:48:19.126Z,10.68
2023-04-15T22:50:46.306Z,11.55
2023-04-15T22:53:14.933Z,12.13
2023-04-15T22:55:46.701Z,11.07
2023-04-15T22:58:14.632Z,11.95
2023-04-15T23:00:41.692Z,11.73
2023-04-15T23:03:08.689Z,11.90
2023-04-15T23:05:35.794Z,11.90
2023-04-15T23:08:02.843Z,12.60
2023-04-15T23:10:29.738Z,11.68
2023-04-15T23:12:56.763Z,11.63
2023-04-15T23:15:23.700Z,12.43
2023-04-15T23:17:50.836Z,11.23
2023-04-15T23:20:17.940Z,10.38
2023-04-15T23:22:45.065Z,11.63
2023-04-15T23:25:12.021Z,11.25
2023-04-15T23:27:38.909Z,11.38
2023-04-15T23:30:06.966Z,10.82
2023-04-15T23:32:33.967Z,9.50
2023-04-15T23:35:01.113Z,8.63
2023-04-15T23:37:30.009Z,8.07
2023-04-15T23:39:56.931Z,7.63
2023-04-15T23:42:24.294Z,7.53
2023-04-15T23:44:51.396Z,7.03
2023-04-15T23:47:18.343Z,7.97
2023-04-15T23:49:45.485Z,7.68
2023-04-15T23:52:12.599Z,8.02
2023-04-15T23:54:40.206Z,7.28
2023-04-15T23:57:07.155Z,6.65
2023-04-15T23:59:34.071Z,9.50
